Tiempo atmosférico en la estación meteorológica de La Puebla De Los Infantes, Sevilla (200 m.)



Fecha
DESCASC
Temp. máxima en grados centígrados (hora)
DESCASC
Temp. mínima en grados centígrados (hora)
DESCASC
Temp. media en grados centígrados
DESCASC
Racha de viento máxima en m/sg (hora)
DESCASC
Velocidad máxima media en intervalos de 10 minutos(hora)
DESCASC
Precipitaciones diarias en mm
DESCASC
Precipitaciones de 00:00 a 06:00 en mm
DESCASC
Precipitaciones de 06:00 a 12:00 en mm
DESCASC
Precipitaciones de 12:00 a 18:00 en mm
DESCASC
Precipitaciones de 18:00 a 24:00 en mm
DESCASC
19-09-2019 30.6 (17:20) 11.5 (08:20) 21.1 6.67 (17:30) 4.17 (17:30) 0 0 0 0 0
18-09-2019 30.3 (18:10) 13.7 (08:10) 22 7.78 (16:30) 4.17 (16:30) 0 0 0 0 0
17-09-2019 30.6 (18:20) 14.7 (00:00) 22.7 6.94 (13:50) 4.44 (15:50) 0.2 0 0 0.2 0
16-09-2019 31.7 (17:30) 14 (00:00) 22.9 7.22 (17:10) 3.33 (14:00) 0 0 0 0 0
15-09-2019 30.6 (17:00) 15.6 (00:00) 23.1 8.61 (14:10) 4.17 (15:50) 0 0 0 0 0
14-09-2019 25.6 (17:50) 15.2 (00:00) 20.4 8.89 (15:30) 5.28 (15:30) 1.6 0 0 1.6 0
13-09-2019 28.6 (17:00) 18.4 (00:00) 23.5 13.89 (19:10) 8.33 (19:20) 0 0 0 0 0
12-09-2019 28.8 (15:00) 18.4 (00:00) 23.6 13.33 (23:40) 8.33 (23:40) 0 0 0 0 0
11-09-2019 29.7 (17:20) 11 (00:00) 20.4 10 (16:10) 6.39 (16:10) 0 0 0 0 0
10-09-2019 28.8 (17:00) 10.3 (06:40) 19.5 11.11 (14:20) 7.5 (14:20) 0 0 0 0 0
09-09-2019 33 (18:20) 13.3 (08:10) 23.2 10.56 (19:40) 6.11 (20:20) 0 0 0 0 0
08-09-2019 31.7 (16:10) 19.3 (00:00) 25.5 15.28 (17:10) 8.61 (17:10) 0.8 0 0 0.8 0
07-09-2019 34.1 (17:30) 15.6 (00:00) 24.8 9.17 (17:00) 5.56 (17:00) 0 0 0 0 0
06-09-2019 35.6 (17:30) 16.8 (00:00) 26.2 7.5 (13:10) 4.72 (11:20) 1.6 0 0 0 1.6
05-09-2019 36.5 (17:00) 14.4 (00:00) 25.4 9.17 (19:20) 5.56 (19:40) 0 0 0 0 0
04-09-2019 36.8 (17:00) 18.9 (00:00) 27.8 10 (15:00) 5.28 (18:30) 0 0 0 0 0
03-09-2019 37.5 (17:50) 15.6 (00:00) 26.6 6.67 (16:40) 3.89 (22:00) 0 0 0 0 0
02-09-2019 37.9 (17:20) 16.9 (00:00) 27.4 7.5 (17:30) 4.72 (20:20) 0 0 0 0 0
01-09-2019 37.2 (17:40) 17.1 (00:00) 27.2 7.5 (21:20) 4.72 (19:50) 0 0 0 0 0
31-08-2019 37.2 (17:30) 16.4 (00:00) 26.8 8.33 (00:50) 4.17 (00:50) 0 0 0 0 0
30-08-2019 37.9 (17:40) 15.5 (00:00) 26.7 9.72 (14:10) 4.72 (19:50) 0 0 0 0 0
29-08-2019 36.7 (17:30) 19.9 (00:00) 28.3 13.06 (15:30) 5 (20:10) 0 0 0 0 0
28-08-2019 35.8 (17:30) 15.3 (00:00) 25.5 6.67 (16:20) 3.61 (13:50) 0 0 0 0 0
27-08-2019 31.8 (17:50) 16 (00:00) 23.9 7.5 (16:00) 4.17 (22:10) 0 0 0 0 0
26-08-2019 32.5 (17:20) 16.8 (00:00) 24.6 9.44 (18:50) 5.83 (18:50) 0 0 0 0 0
25-08-2019 34.8 (17:00) 16.2 (00:00) 25.5 10 (22:20) 5.83 (22:20) 0 0 0 0 0
24-08-2019 36.7 (18:00) 14.5 (00:00) 25.6 7.22 (16:30) 3.61 (19:20) 0 0 0 0 0
23-08-2019 36.2 (18:20) 16.7 (00:00) 26.5 7.5 (15:10) 4.44 (18:30) 0 0 0 0 0

Gráficas

Temp. máximas Temp. mínimas Temp. medias Precipitaciones Rachas de viento máximas Velocidades máximas media en intervalos de 10 minutos

Datos horarios

Fecha y hora oficial Temperatura (ºC) Velocidad del viento (km/h) Dirección del viento Racha (km/h) Dirección de racha Precipitación (mm) Presión (hPa) Tendencia (hPa) Humedad (%)
2019-09-21 23:00:00 21.1 5 Sudoeste 24 Sudoeste 0 -- -- 80
2019-09-21 22:00:00 21.7 14 Sudoeste 22 Sudoeste 0 -- -- 76
2019-09-21 21:00:00 22.3 10 Sudoeste 27 Oeste 0 -- -- 70
2019-09-21 20:00:00 23.4 16 Sudoeste 25 Sudoeste 0 -- -- 67
2019-09-21 19:00:00 24.6 11 Sudoeste 27 Sudoeste 0 -- -- 61
2019-09-21 18:00:00 24 14 Sudoeste 24 Oeste 0 -- -- 62
2019-09-21 17:00:00 24.2 9 Sudoeste 24 Sudoeste 0 -- -- 60
2019-09-21 16:00:00 24.5 8 Sudoeste 17 Sudoeste 0 -- -- 54
2019-09-21 15:00:00 23.8 8 Sudoeste 24 Sudoeste 0 -- -- 55
2019-09-21 14:00:00 23.7 11 Sur 22 Sur 0 -- -- 62
2019-09-21 13:00:00 22.7 12 Sur 24 Sudoeste 0 -- -- 67
2019-09-21 12:00:00 21.6 10 Sudoeste 17 Sur 0 -- -- 72
2019-09-21 11:00:00 20 6 Oeste 16 Sudoeste 0 -- -- 79
2019-09-21 10:00:00 19.8 6 Sur 12 Sur 0 -- -- 80
2019-09-21 09:00:00 18.5 2 Este 5 Este 0 -- -- 83
2019-09-21 08:00:00 18.2 3 Sur 9 Sur 0 -- -- 82
2019-09-21 07:00:00 18.3 6 Este 8 Este 0 -- -- 82
2019-09-21 06:00:00 18.9 2 Sudeste 8 Sur 0 -- -- 77
2019-09-21 05:00:00 19.2 2 Nordeste 5 Nordeste 0 -- -- 73
2019-09-21 04:00:00 19.3 3 Noroeste 8 Oeste 0 -- -- 72
2019-09-21 03:00:00 20.2 5 Oeste 12 Sudoeste 0 -- -- 69
2019-09-21 02:00:00 21.4 7 Sudoeste 13 Oeste 0 -- -- 67
2019-09-21 01:00:00 21.7 8 Oeste 17 Oeste 0 -- -- 66
2019-09-21 00:00:00 22.2 8 Oeste 18 Oeste 0 -- -- 68
2019-09-20 23:00:00 22.4 8 Oeste 14 Oeste 0 -- -- 66
2019-09-20 22:00:00 23.2 6 Oeste 13 Sudoeste 0 -- -- 62
2019-09-20 21:00:00 24.1 7 Sudoeste 13 Sudoeste 0 -- -- 59
2019-09-20 20:00:00 24.9 8 Sudoeste 22 Sudoeste 0 -- -- 56
2019-09-20 19:00:00 25.7 14 Oeste 24 Oeste 0 -- -- 55
2019-09-20 18:00:00 26.3 10 Oeste 24 Sudoeste 0 -- -- 53
2019-09-20 17:00:00 27.2 12 Sudoeste 25 Sudoeste 0 -- -- 51
2019-09-20 16:00:00 25.6 12 Sudoeste 22 Sudoeste 0 -- -- 55
2019-09-20 15:00:00 26 10 Sudoeste 18 Sudoeste 0 -- -- 56
2019-09-20 14:00:00 25.7 9 Sur 18 Sur 0 -- -- 58
2019-09-20 13:00:00 24.9 5 Sudoeste 14 Sudeste 0 -- -- 61
2019-09-20 12:00:00 22.9 3 Sudeste 8 Noroeste 0 -- -- 62
2019-09-20 11:00:00 20.6 4 Oeste 10 Oeste 0 -- -- 61
2019-09-20 10:00:00 17.7 0 Calma 3 Noroeste 0 -- -- 68
2019-09-20 09:00:00 15.4 3 Noroeste 5 Noroeste 0 -- -- 73
2019-09-20 08:00:00 14.3 0 Calma 3 Noroeste 0 -- -- 72
2019-09-20 07:00:00 14.3 0 Calma 4 Noroeste 0 -- -- 71
2019-09-20 06:00:00 14.7 0 Calma 5 Sudeste 0 -- -- 71
2019-09-20 05:00:00 15.3 2 Norte 5 Norte 0 -- -- 67
2019-09-20 04:00:00 16.4 2 Este 5 Nordeste 0 -- -- 64
2019-09-20 03:00:00 16.9 0 Calma 3 Oeste 0 -- -- 59
2019-09-20 02:00:00 17.2 0 Calma 4 Noroeste 0 -- -- 59
2019-09-20 01:00:00 17.8 0 Calma 4 Norte 0 -- -- 54
2019-09-20 00:00:00 18.3 3 Noroeste 4 Norte 0 -- -- 55
2019-09-19 23:00:00 19.5 0 Calma 4 Noroeste 0 -- -- 51
2019-09-19 22:00:00 21.6 3 Noroeste 7 Noroeste 0 -- -- 43
2019-09-19 21:00:00 25.3 4 Oeste 15 Sudoeste 0 -- -- 39
2019-09-19 20:00:00 27.9 7 Sudoeste 19 Sudoeste 0 -- -- 36
2019-09-19 19:00:00 29.8 9 Sudoeste 22 Oeste 0 -- -- 33
2019-09-19 18:00:00 30.3 8 Sudoeste 24 Oeste 0 -- -- 34
2019-09-19 17:00:00 30.4 10 Sudoeste 21 Sudoeste 0 -- -- 35
2019-09-19 16:00:00 30 8 Sudoeste 22 Sur 0 -- -- 37
2019-09-19 15:00:00 29.5 11 Sur 20 Sur 0 -- -- 40
2019-09-19 14:00:00 28.3 6 Sur 16 Sur 0 -- -- 41
2019-09-19 13:00:00 26.4 7 Sudeste 13 Sudeste 0 -- -- 51
2019-09-19 12:00:00 24.1 3 Este 10 Este 0 -- -- 60
2019-09-19 11:00:00 21.5 3 Este 7 Este 0 -- -- 70
2019-09-19 10:00:00 17.9 0 Calma 4 Este 0 -- -- 79
2019-09-19 09:00:00 12.6 0 Calma 4 Norte 0 -- -- 85
2019-09-19 08:00:00 11.8 0 Calma 5 Norte 0 -- -- 83
2019-09-19 07:00:00 12.2 0 Calma 6 Norte 0 -- -- 83
2019-09-19 06:00:00 12.5 0 Calma 4 Norte 0 -- -- 80
2019-09-19 05:00:00 12.9 0 Calma 5 Noroeste 0 -- -- 80
2019-09-19 04:00:00 13.8 0 Calma 5 Norte 0 -- -- 78
2019-09-19 03:00:00 14.7 3 Norte 4 Oeste 0 -- -- 78
2019-09-19 02:00:00 15.6 5 Noroeste 7 Noroeste 0 -- -- 75
2019-09-19 01:00:00 17 3 Noroeste 8 Norte 0 -- -- 72
2019-09-19 00:00:00 17.7 2 Noroeste 6 Norte 0 -- -- 66
2019-09-18 23:00:00 19.3 0 Calma 8 Noroeste 0 -- -- 59
2019-09-18 22:00:00 21.9 6 Noroeste 15 Oeste 0 -- -- 51
2019-09-18 21:00:00 25.2 10 Oeste 17 Oeste 0 -- -- 45
2019-09-18 20:00:00 27.1 8 Sudoeste 18 Sudoeste 0 -- -- 41
2019-09-18 19:00:00 29 9 Sudoeste 20 Sudoeste 0 -- -- 38
2019-09-18 18:00:00 30.2 8 Sudoeste 19 Sudoeste 0 -- -- 37
2019-09-18 17:00:00 29.4 8 Sudoeste 28 Sur 0 -- -- 43
2019-09-18 16:00:00 30 9 Sur 18 Sur 0 -- -- 44
2019-09-18 15:00:00 28.6 8 Sudoeste 23 Sudoeste 0 -- -- 49
2019-09-18 14:00:00 27.1 8 Sudoeste 22 Sur 0 -- -- 54
2019-09-18 13:00:00 26.4 9 Sur 20 Sur 0 -- -- 59
2019-09-18 12:00:00 25.5 8 Sudoeste 16 Sur 0 -- -- 62
2019-09-18 11:00:00 22.8 6 Oeste 10 Oeste 0 -- -- 69
2019-09-18 10:00:00 19.5 2 Sudeste 4 Sudeste 0 -- -- 81
2019-09-18 09:00:00 14.8 0 Calma 5 Noroeste 0 -- -- 89
2019-09-18 08:00:00 13.8 2 Norte 4 Noroeste 0 -- -- 88
2019-09-18 07:00:00 14.3 0 Calma 3 Norte 0 -- -- 83
2019-09-18 06:00:00 15.3 0 Calma 6 Norte 0 -- -- 84
2019-09-18 05:00:00 16 0 Calma 5 Sudoeste 0 -- -- 80
2019-09-18 04:00:00 16.1 0 Calma 3 Este 0 -- -- 80
2019-09-18 03:00:00 17.2 0 Calma 4 Este 0 -- -- 75
2019-09-18 02:00:00 18.4 4 Noroeste 9 Noroeste 0 -- -- 75
2019-09-18 01:00:00 19.1 5 Norte 8 Norte 0 -- -- 72
2019-09-18 00:00:00 19.9 3 Norte 5 Norte 0 -- -- 70
2019-09-17 23:00:00 20.2 0 Calma 5 Sudoeste 0 -- -- 65
2019-09-17 22:00:00 22.4 0 Calma 6 Norte 0 -- -- 58
2019-09-17 21:00:00 25.7 3 Norte 12 Sudeste 0 -- -- 52
2019-09-15 18:00:00 29.8 10 Sur 25 Sur 0 -- -- 44
2019-09-15 17:00:00 30.6 10 Sur 25 Sudoeste 0 -- -- 44
2019-09-15 16:00:00 29.8 13 Sudoeste 30 Sur 0 -- -- 45
2019-09-15 15:00:00 29.8 10 Sur 31 Sur 0 -- -- 45
2019-09-15 14:00:00 28.7 11 Sudoeste 22 Sudoeste 0 -- -- 54
2019-09-15 13:00:00 26.7 11 Sudeste 18 Sur 0 -- -- 64
2019-09-15 12:00:00 26.3 6 Sudoeste 12 Sudoeste 0 -- -- 62
2019-09-15 11:00:00 24 0 Calma 5 Noroeste 0 -- -- 70
2019-09-15 10:00:00 20.2 0 Calma 4 Oeste 0 -- -- 81
2019-09-15 09:00:00 15.9 0 Calma 5 Norte 0 -- -- 94
2019-09-15 08:00:00 15.6 2 Sur 7 Oeste 0 -- -- 93
2019-09-15 07:00:00 16 0 Calma 5 Noroeste 0 -- -- 92
2019-09-15 06:00:00 16.3 2 Sudoeste 5 Sudeste 0 -- -- 91
2019-09-15 05:00:00 16.7 4 Noroeste 5 Noroeste 0 -- -- 91
2019-09-15 04:00:00 17.2 0 Calma 4 Noroeste 0 -- -- 91
2019-09-15 03:00:00 17.4 2 Sudoeste 4 Sur 0 -- -- 90
2019-09-15 02:00:00 18.3 0 Calma 5 Norte 0 -- -- 86
2019-09-15 01:00:00 19.5 2 Noroeste 5 Noroeste 0 -- -- 86
2019-09-15 00:00:00 20.3 0 Calma 5 Oeste 0 -- -- 85
2019-09-14 23:00:00 20.7 2 Oeste 6 Noroeste 0 -- -- 84
2019-09-14 22:00:00 21.3 4 Norte 5 Norte 0 -- -- 81
2019-09-14 21:00:00 22.3 0 Calma 10 Sudeste 0 -- -- 77
2019-09-14 20:00:00 23.7 8 Sudeste 12 Sudeste 0 -- -- 67
2019-09-14 19:00:00 24.4 6 Este 17 Este 0 -- -- 64
2019-09-14 18:00:00 25.4 12 Nordeste 23 Este 0 -- -- 51
2019-09-14 17:00:00 24.1 12 Este 29 Este 0 -- -- 59
2019-09-14 16:00:00 21.9 13 Nordeste 32 Este 0.2 -- -- 74
2019-09-14 15:00:00 19.7 13 Este 31 Este 0.2 -- -- 86
2019-09-14 14:00:00 19.4 15 Este 29 Sudeste 1.2 -- -- 87
2019-09-14 13:00:00 22.3 17 Este 28 Este 0 -- -- 66
2019-09-14 12:00:00 21.6 10 Este 22 Sudeste 0 -- -- 66
2019-09-14 11:00:00 20.2 9 Este 17 Nordeste 0 -- -- 76
2019-09-14 10:00:00 19.4 8 Este 14 Este 0 -- -- 76
2019-09-14 09:00:00 17.1 5 Nordeste 9 Nordeste 0 -- -- 81
2019-09-14 08:00:00 15.2 0 Calma 5 Norte 0 -- -- 76
2019-09-14 07:00:00 15.8 0 Calma 7 Sudeste 0 -- -- 77
2019-09-14 06:00:00 16.2 0 Calma 4 Este 0 -- -- 73
2019-09-14 05:00:00 18.4 3 Sudeste 9 Este 0 -- -- 68
2019-09-14 04:00:00 19.6 3 Norte 12 Nordeste 0 -- -- 66
2019-09-14 03:00:00 19.4 9 Norte 15 Norte 0 -- -- 67
2019-09-14 02:00:00 19.9 5 Nordeste 12 Nordeste 0 -- -- 63
2019-09-14 01:00:00 19 2 Nordeste 8 Nordeste 0 -- -- 64
2019-09-14 00:00:00 20 5 Nordeste 8 Nordeste 0 -- -- 63
2019-09-13 23:00:00 20.6 4 Norte 12 Norte 0 -- -- 63
2019-09-13 22:00:00 21.4 6 Norte 28 Norte 0 -- -- 59
2019-09-13 21:00:00 21.7 9 Noroeste 31 Sur 0 -- -- 55
2019-09-13 20:00:00 22.6 26 Sur 50 Sudeste 0 -- -- 56
2019-09-13 19:00:00 28 17 Este 28 Este 0 -- -- 39
2019-09-13 18:00:00 28.3 17 Este 35 Este 0 -- -- 36
2019-09-13 17:00:00 28.6 16 Este 32 Este 0 -- -- 38
2019-09-13 16:00:00 27.6 18 Este 36 Este 0 -- -- 43
2019-09-13 15:00:00 27 15 Nordeste 31 Nordeste 0 -- -- 45
2019-09-13 14:00:00 23.1 12 Este 23 Sudeste 0 -- -- 58
2019-09-13 13:00:00 23.2 18 Este 29 Este 0 -- -- 57
2019-09-13 12:00:00 21.5 10 Este 28 Este 0 -- -- 63
2019-09-13 11:00:00 21.2 10 Este 26 Este 0 -- -- 63
2019-09-13 10:00:00 21 12 Nordeste 30 Nordeste 0 -- -- 57
2019-09-13 09:00:00 19.2 15 Nordeste 31 Nordeste 0 -- -- 67
2019-09-13 08:00:00 18.4 6 Este 17 Este 0 -- -- 69
2019-09-13 07:00:00 18.5 2 Este 7 Sudeste 0 -- -- 72
2019-09-13 06:00:00 20.1 9 Este 23 Este 0 -- -- 62
2019-09-13 05:00:00 18.5 3 Norte 12 Nordeste 0 -- -- 70
2019-09-13 04:00:00 19.2 5 Este 16 Este 0 -- -- 73
2019-09-13 03:00:00 19.6 11 Este 25 Sudeste 0 -- -- 70
2019-09-13 02:00:00 21.3 13 Sudeste 28 Norte 0 -- -- 64
2019-09-13 01:00:00 21.7 11 Nordeste 30 Nordeste 0 -- -- 60
2019-09-13 00:00:00 20.5 18 Este 48 Este 0 -- -- 67
2019-09-12 23:00:00 21.7 25 Este 42 Este 0 -- -- 65
2019-09-12 22:00:00 23.5 12 Este 22 Este 0 -- -- 54
2019-09-12 21:00:00 24.5 15 Este 32 Este 0 -- -- 48
2019-09-12 20:00:00 26.8 14 Este 32 Este 0 -- -- 43
2019-09-12 19:00:00 27.1 21 Este 39 Este 0 -- -- 41
2019-09-12 18:00:00 27.3 19 Sudeste 39 Este 0 -- -- 41
2019-09-12 17:00:00 27.5 23 Este 43 Sudeste 0 -- -- 41
2019-09-12 16:00:00 28 26 Este 42 Sudeste 0 -- -- 40
2019-09-12 15:00:00 28.8 24 Este 44 Este 0 -- -- 38
2019-09-12 14:00:00 26.8 27 Este 46 Este 0 -- -- 40
2019-09-12 13:00:00 26 29 Este 47 Este 0 -- -- 42
2019-09-12 12:00:00 25.5 20 Este 34 Este 0 -- -- 43
2019-09-12 11:00:00 24.4 22 Este 37 Nordeste 0 -- -- 45
2019-09-12 10:00:00 22.7 21 Nordeste 35 Nordeste 0 -- -- 48
2019-09-12 09:00:00 20.3 13 Norte 23 Norte 0 -- -- 52
2019-09-12 08:00:00 19.3 12 Norte 24 Nordeste 0 -- -- 51
2019-09-12 07:00:00 19.5 14 Nordeste 23 Nordeste 0 -- -- 50
2019-09-12 06:00:00 18.4 8 Nordeste 17 Norte 0 -- -- 47
2019-09-12 05:00:00 19.2 9 Nordeste 19 Nordeste 0 -- -- 46
2019-09-12 04:00:00 19.6 7 Este 25 Nordeste 0 -- -- 45
2019-09-12 03:00:00 20 10 Nordeste 18 Nordeste 0 -- -- 43
2019-09-12 02:00:00 20.8 8 Nordeste 18 Nordeste 0 -- -- 43
2019-09-12 01:00:00 21.7 9 Nordeste 20 Este 0 -- -- 43
2019-09-12 00:00:00 21.6 6 Nordeste 21 Este 0 -- -- 43
2019-09-11 23:00:00 23.8 12 Este 27 Este 0 -- -- 38
2019-09-11 22:00:00 24.7 8 Este 13 Este 0 -- -- 36
2019-09-11 21:00:00 25.6 7 Este 12 Este 0 -- -- 35
2019-09-11 20:00:00 26.8 5 Este 19 Sudeste 0 -- -- 32
2019-09-11 19:00:00 28 10 Este 32 Este 0 -- -- 30
2019-09-11 18:00:00 29.3 16 Nordeste 33 Este 0 -- -- 28
2019-09-11 17:00:00 28.8 17 Sudeste 36 Norte 0 -- -- 29
2019-09-11 16:00:00 28.8 20 Nordeste 34 Nordeste 0 -- -- 28
2019-09-11 15:00:00 28.4 19 Nordeste 32 Norte 0 -- -- 29
2019-09-11 14:00:00 27.1 12 Nordeste 27 Nordeste 0 -- -- 31
2019-09-11 13:00:00 25.6 12 Nordeste 30 Norte 0 -- -- 32
2019-09-11 12:00:00 23.5 15 Norte 31 Norte 0 -- -- 36
2019-09-11 11:00:00 22.2 21 Nordeste 32 Nordeste 0 -- -- 38
2019-09-11 10:00:00 20.5 12 Nordeste 22 Nordeste 0 -- -- 41
2019-09-11 09:00:00 16.7 3 Sudoeste 14 Nordeste 0 -- -- 51
2019-09-11 08:00:00 11.4 0 Calma 5 Nordeste 0 -- -- 60
2019-09-11 07:00:00 14.7 5 Norte 14 Norte 0 -- -- 52
2019-09-11 06:00:00 11.2 2 Nordeste 5 Sudoeste 0 -- -- 55
2019-09-11 05:00:00 12.5 5 Sudoeste 11 Norte 0 -- -- 50
2019-09-11 04:00:00 11.7 5 Sudoeste 9 Sudoeste 0 -- -- 54
2019-09-11 03:00:00 12.7 0 Calma 12 Norte 0 -- -- 47
2019-09-11 02:00:00 13.5 7 Norte 12 Norte 0 -- -- 45
2019-09-11 01:00:00 14.3 0 Calma 9 Norte 0 -- -- 42
2019-09-11 00:00:00 15.9 6 Norte 10 Norte 0 -- -- 38
2019-09-10 23:00:00 17.5 6 Norte 12 Norte 0 -- -- 37
2019-09-10 22:00:00 19.4 4 Norte 7 Norte 0 -- -- 36
2019-09-10 21:00:00 23.6 6 Norte 23 Norte 0 -- -- 29
2019-09-10 20:00:00 26.4 13 Norte 27 Norte 0 -- -- 24
2019-09-10 19:00:00 27.4 10 Norte 32 Norte 0 -- -- 26
2019-09-10 18:00:00 28.1 13 Norte 32 Noroeste 0 -- -- 27
2019-09-10 17:00:00 28.8 13 Noroeste 40 Noroeste 0 -- -- 25
2019-09-10 16:00:00 27.2 18 Norte 40 Norte 0 -- -- 28
2019-09-10 15:00:00 27.1 25 Norte 40 Noroeste 0 -- -- 29
2019-09-10 14:00:00 26.3 23 Norte 37 Noroeste 0 -- -- 35
2019-09-10 13:00:00 25.7 15 Noroeste 35 Noroeste 0 -- -- 40
2019-09-10 12:00:00 23.1 20 Noroeste 33 Noroeste 0 -- -- 47
2019-09-10 11:00:00 21 15 Norte 28 Noroeste 0 -- -- 54
2019-09-10 10:00:00 17.8 7 Sudoeste 12 Oeste 0 -- -- 58
2019-09-10 09:00:00 14.4 5 Noroeste 10 Noroeste 0 -- -- 66
2019-09-10 08:00:00 10.8 3 Noroeste 6 Norte 0 -- -- 70
2019-09-10 07:00:00 11.2 3 Noroeste 8 Oeste 0 -- -- 69
2019-09-10 06:00:00 11.1 0 Calma 8 Norte 0 -- -- 68
2019-09-10 05:00:00 12.9 3 Oeste 6 Oeste 0 -- -- 66
2019-09-10 04:00:00 14.5 4 Nordeste 10 Noroeste 0 -- -- 64
2019-09-10 03:00:00 16.3 3 Oeste 10 Noroeste 0 -- -- 58
2019-09-10 02:00:00 21.2 6 Noroeste 15 Oeste 0 -- -- 49
2019-09-10 01:00:00 22.7 10 Oeste 16 Sudoeste 0 -- -- 49
2019-09-10 00:00:00 23.2 4 Noroeste 15 Oeste 0 -- -- 48
2019-09-09 23:00:00 26.1 9 Oeste 16 Oeste 0 -- -- 47
2019-09-09 22:00:00 27.2 8 Sudoeste 33 Sudoeste 0 -- -- 44
2019-09-09 21:00:00 28.6 18 Sudoeste 36 Sudoeste 0 -- -- 43
2019-09-09 20:00:00 31.8 15 Oeste 38 Oeste 0 -- -- 26
2019-09-09 19:00:00 32 15 Oeste 33 Sudoeste 0 -- -- 27
2019-09-09 18:00:00 32.6 15 Sudoeste 36 Sudoeste 0 -- -- 31
2019-09-09 17:00:00 31.1 17 Oeste 30 Sudoeste 0 -- -- 35
2019-09-09 16:00:00 31.8 13 Sur 29 Sur 0 -- -- 38
2019-09-09 15:00:00 31 12 Sur 24 Sudeste 0 -- -- 41
2019-09-09 14:00:00 29.6 7 Sur 21 Sudoeste 0 -- -- 46
2019-09-09 13:00:00 28 5 Este 15 Sudeste 0 -- -- 51
2019-09-09 12:00:00 26 3 Sudeste 9 Nordeste 0 -- -- 58
2019-09-09 11:00:00 23 2 Sur 6 Noroeste 0 -- -- 69
2019-09-09 10:00:00 20 2 Este 4 Este 0 -- -- 78
2019-09-09 09:00:00 15.1 0 Calma 4 Noroeste 0 -- -- 93
2019-09-09 08:00:00 13.5 0 Calma 4 Noroeste 0 -- -- 91
2019-09-09 07:00:00 14.3 2 Norte 4 Sudeste 0 -- -- 90
2019-09-09 06:00:00 15.6 0 Calma 6 Nordeste 0 -- -- 84
2019-09-09 05:00:00 17.2 6 Nordeste 8 Este 0 -- -- 85
2019-09-09 04:00:00 17.5 2 Este 8 Este 0 -- -- 87
2019-09-09 03:00:00 17.1 2 Nordeste 5 Noroeste 0 -- -- 84
2019-09-09 02:00:00 18.5 0 Calma 4 Nordeste 0 -- -- 80
2019-09-09 01:00:00 20 3 Sudeste 4 Sudeste 0 -- -- 77
2019-09-09 00:00:00 21.2 0 Calma 9 Oeste 0 -- -- 70
2019-09-08 23:00:00 22.1 4 Oeste 12 Sudoeste 0 -- -- 62
2019-09-08 22:00:00 22.6 6 Sudoeste 31 Sur 0 -- -- 62
2019-09-08 21:00:00 23.1 10 Sur 22 Sur 0 -- -- 65
2019-09-08 20:00:00 22.6 9 Nordeste 15 Nordeste 0 -- -- 68
2019-09-08 19:00:00 22.4 5 Este 10 Nordeste 0 -- -- 73
2019-09-08 18:00:00 21.2 4 Nordeste 55 Nordeste 0.8 -- -- 82
2019-09-08 17:00:00 26.9 29 Norte 51 Nordeste 0 -- -- 49
2019-09-08 16:00:00 31.6 15 Sur 28 Sudeste 0 -- -- 37
2019-09-08 15:00:00 30.6 11 Sudeste 20 Sudeste 0 -- -- 43
2019-09-08 14:00:00 28.5 7 Sudeste 15 Sudeste 0 -- -- 50
2019-09-08 13:00:00 26.7 6 Sudeste 15 Este 0 -- -- 56
2019-09-08 12:00:00 24.3 11 Este 21 Este 0 -- -- 66
2019-09-08 11:00:00 23.7 0 Calma 4 Oeste 0 -- -- 68
2019-09-08 10:00:00 21.7 2 Oeste 5 Oeste 0 -- -- 74
2019-09-08 09:00:00 19.7 2 Noroeste 6 Este 0 -- -- 78
2019-09-08 08:00:00 19.4 3 Noroeste 7 Este 0 -- -- 76
2019-09-08 07:00:00 20.5 3 Este 8 Este 0 -- -- 73
2019-09-08 06:00:00 19.7 6 Este 9 Este 0 -- -- 73
2019-09-08 05:00:00 20.6 3 Norte 8 Oeste 0 -- -- 69
2019-09-08 04:00:00 22.6 6 Oeste 15 Oeste 0 -- -- 64
2019-09-08 03:00:00 23 7 Oeste 14 Oeste 0 -- -- 62
2019-09-08 02:00:00 24.5 9 Sudoeste 22 Sur 0 -- -- 57
2019-09-08 01:00:00 24.5 16 Sur 22 Sur 0 -- -- 56
2019-09-08 00:00:00 25.5 8 Sur 24 Sudeste 0 -- -- 52
2019-09-07 23:00:00 25.8 9 Sudeste 14 Sudeste 0 -- -- 44
2019-09-07 22:00:00 26.6 5 Este 17 Sudeste 0 -- -- 43
2019-09-07 21:00:00 28.8 13 Sur 23 Sudeste 0 -- -- 39
2019-09-07 20:00:00 30.6 15 Sur 27 Sudeste 0 -- -- 35
2019-09-07 19:00:00 33.3 11 Sudeste 25 Sudeste 0 -- -- 29
2019-09-07 18:00:00 33.8 14 Sudeste 31 Sudeste 0 -- -- 28
2019-09-07 17:00:00 34 20 Sudeste 33 Este 0 -- -- 29
2019-09-07 16:00:00 33.3 10 Sudeste 26 Sudeste 0 -- -- 33
2019-09-07 15:00:00 32.5 13 Sudeste 31 Sudeste 0 -- -- 38
2019-09-07 14:00:00 31.1 15 Este 26 Sudeste 0 -- -- 42
2019-09-07 13:00:00 29.1 12 Sudeste 23 Este 0 -- -- 50
2019-09-07 12:00:00 27.5 9 Sudeste 21 Este 0 -- -- 55
2019-09-07 11:00:00 25.7 10 Este 19 Este 0 -- -- 59
2019-09-07 10:00:00 22.8 4 Este 8 Nordeste 0 -- -- 71
2019-09-07 09:00:00 17.2 0 Calma 3 Norte 0 -- -- 87
2019-09-07 08:00:00 15.6 0 Calma 3 Norte 0 -- -- 88
2019-09-07 07:00:00 16.2 0 Calma 5 Norte 0 -- -- 86
2019-09-07 06:00:00 16.7 3 Nordeste 6 Este 0 -- -- 83
2019-09-07 05:00:00 17.8 0 Calma 5 Este 0 -- -- 80
2019-09-07 04:00:00 19 3 Nordeste 10 Este 0 -- -- 70
2019-09-07 03:00:00 19.2 2 Este 9 Este 0 -- -- 72
2019-09-07 02:00:00 18.4 0 Calma 4 Noroeste 0 -- -- 86
2019-09-07 01:00:00 19.3 0 Calma 3 Sudeste 0 -- -- 83
2019-09-07 00:00:00 20.4 3 Norte 6 Noroeste 0 -- -- 82
2019-09-06 23:00:00 21.5 5 Nordeste 8 Sudeste 0 -- -- 77
2019-09-06 22:00:00 23.1 3 Este 10 Noroeste 0 -- -- 78
2019-09-06 21:00:00 25 3 Noroeste 17 Sur 0 -- -- 61
2019-09-06 20:00:00 26.4 6 Sur 26 Noroeste 1.6 -- -- 71
2019-09-06 19:00:00 33.3 5 Sur 22 Sudeste 0 -- -- 33
2019-09-06 18:00:00 34.2 11 Este 23 Sudeste 0 -- -- 32
2019-09-06 17:00:00 34.4 10 Sur 21 Sudeste 0 -- -- 35
2019-09-06 16:00:00 33.8 11 Sudeste 25 Sudeste 0 -- -- 38
2019-09-06 15:00:00 32.6 8 Este 24 Sudeste 0 -- -- 43
2019-09-06 14:00:00 31.5 14 Este 27 Este 0 -- -- 46
2019-09-06 13:00:00 30.2 10 Este 25 Este 0 -- -- 51
2019-09-06 12:00:00 28.6 14 Sudeste 25 Este 0 -- -- 55
2019-09-06 11:00:00 27 14 Este 21 Este 0 -- -- 60
2019-09-06 10:00:00 24.3 3 Nordeste 9 Nordeste 0 -- -- 67
2019-09-06 09:00:00 19.3 0 Calma -- -- 0 -- -- 79
2019-09-06 08:00:00 16.9 0 Calma 2 Este 0 -- -- 77
2019-09-06 07:00:00 17.4 0 Calma 3 Norte 0 -- -- 75
2019-09-06 06:00:00 18.2 0 Calma 3 Noroeste 0 -- -- 74
2019-09-06 05:00:00 19 0 Calma 2 Sur 0 -- -- 73
2019-09-06 04:00:00 20.8 0 Calma 8 Sudeste 0 -- -- 69
2019-09-06 03:00:00 22.6 3 Nordeste 10 Sur 0 -- -- 68
2019-09-06 02:00:00 24.3 6 Sur 18 Sur 0 -- -- 64
2019-09-06 01:00:00 25 9 Sur 16 Sur 0 -- -- 58
2019-09-06 00:00:00 26.4 7 Sudoeste 18 Sudoeste 0 -- -- 53
2019-09-05 23:00:00 28.3 5 Sudoeste 16 Oeste 0 -- -- 47
2019-09-05 22:00:00 29.1 6 Sudoeste 18 Sudoeste 0 -- -- 46
2019-09-05 21:00:00 30.6 12 Oeste 21 Sudoeste 0 -- -- 42
2019-09-05 20:00:00 32.1 14 Oeste 33 Sudoeste 0 -- -- 41
2019-09-05 19:00:00 34.9 18 Sudoeste 30 Sudoeste 0 -- -- 31
2019-09-05 18:00:00 36.3 12 Sudoeste 26 Sudoeste 0 -- -- 28
2019-09-05 17:00:00 36.5 12 Sudoeste 24 Oeste 0 -- -- 29
2019-09-05 16:00:00 35.6 11 Sur 20 Sur 0 -- -- 31
2019-09-05 15:00:00 34.6 8 Sur 19 Sudeste 0 -- -- 29
2019-09-05 14:00:00 33.4 7 Sur 17 Sudeste 0 -- -- 37
2019-09-05 13:00:00 31.8 5 Sur 25 Sudeste 0 -- -- 42
2019-09-05 12:00:00 29.4 5 Este 13 Sudeste 0 -- -- 48
2019-09-05 11:00:00 26.8 2 Nordeste 7 Sudeste 0 -- -- 57
2019-09-05 10:00:00 22 0 Calma 6 Sudoeste 0 -- -- 67
2019-09-05 09:00:00 16.5 0 Calma 3 Norte 0 -- -- 76
2019-09-05 08:00:00 14.5 2 Noroeste 4 Norte 0 -- -- 77
2019-09-05 07:00:00 15.2 0 Calma 5 Noroeste 0 -- -- 75
2019-09-05 06:00:00 16.5 0 Calma 6 Norte 0 -- -- 73
2019-09-05 05:00:00 17.7 3 Noroeste 9 Norte 0 -- -- 73
2019-09-05 04:00:00 18.3 0 Calma 5 Norte 0 -- -- 69
2019-09-05 03:00:00 20.1 0 Calma 4 Noroeste 0 -- -- 66
2019-09-05 02:00:00 21.7 4 Norte 9 Noroeste 0 -- -- 60
2019-09-05 01:00:00 23.2 3 Noroeste 10 Sudoeste 0 -- -- 55
2019-09-05 00:00:00 25.7 4 Sudoeste 14 Sudoeste 0 -- -- 54
2019-09-04 23:00:00 27.3 0 Calma 15 Sudoeste 0 -- -- 44
2019-09-04 22:00:00 30.3 9 Sudoeste 21 Sudoeste 0 -- -- 39
2019-09-04 21:00:00 31.4 8 Oeste 22 Oeste 0 -- -- 36
2019-09-04 20:00:00 33.8 15 Oeste 24 Sudoeste 0 -- -- 31
2019-09-04 19:00:00 34.5 17 Sudoeste 30 Sudoeste 0 -- -- 30
2019-09-04 18:00:00 36.5 14 Sudoeste 32 Oeste 0 -- -- 27
2019-09-04 17:00:00 36.8 15 Sudoeste 30 Sudoeste 0 -- -- 26
2019-09-04 16:00:00 35.7 18 Sudoeste 36 Sur 0 -- -- 29
2019-09-04 15:00:00 35.4 17 Sur 36 Sur 0 -- -- 30
2019-09-04 14:00:00 34.2 14 Sur 26 Sur 0 -- -- 34
2019-09-04 13:00:00 32.9 12 Sudoeste 23 Oeste 0 -- -- 40
2019-09-04 12:00:00 31.4 12 Sudoeste 22 Sudoeste 0 -- -- 40
2019-09-04 11:00:00 27.9 8 Sudoeste 13 Oeste 0 -- -- 49
2019-09-04 10:00:00 25.1 3 Oeste 7 Oeste 0 -- -- 55
2019-09-04 09:00:00 20.7 0 Calma 3 Noroeste 0 -- -- 61
2019-09-04 08:00:00 18.9 2 Sudoeste 4 Norte 0 -- -- 61
2019-09-04 07:00:00 19.4 0 Calma 3 Sur 0 -- -- 59
2019-09-04 06:00:00 20.9 0 Calma 6 Norte 0 -- -- 56
2019-09-04 05:00:00 21.6 0 Calma 6 Norte 0 -- -- 52
2019-09-04 04:00:00 22.6 0 Calma 7 Norte 0 -- -- 50
2019-09-04 03:00:00 22.2 3 Sur 8 Este 0 -- -- 51
2019-09-04 02:00:00 21.8 0 Calma 8 Sudeste 0 -- -- 48
2019-09-04 01:00:00 23 0 Calma 5 Sudeste 0 -- -- 46
2019-09-04 00:00:00 25 3 Noroeste 6 Norte 0 -- -- 42
2019-09-03 23:00:00 28.3 4 Norte 21 Sur 0 -- -- 36
2019-09-03 22:00:00 30.7 14 Sur 19 Sudeste 0 -- -- 32
2019-09-03 21:00:00 32.1 6 Sur 16 Sur 0 -- -- 30
2019-09-03 20:00:00 35.3 12 Sur 20 Sur 0 -- -- 26
2019-09-03 19:00:00 36.9 10 Sur 21 Sur 0 -- -- 25
2019-09-03 18:00:00 37.4 6 Sur 21 Sur 0 -- -- 25
2019-09-03 17:00:00 37.3 10 Sur 24 Oeste 0 -- -- 25
2019-09-03 16:00:00 36.1 8 Sudeste 23 Sur 0 -- -- 28
2019-09-03 15:00:00 35.4 10 Sur 19 Sudeste 0 -- -- 29
2019-09-03 14:00:00 34.1 9 Sur 19 Sudeste 0 -- -- 30
2019-09-03 13:00:00 32 11 Este 21 Sudeste 0 -- -- 34
2019-09-03 12:00:00 30.2 11 Sudeste 21 Sudeste 0 -- -- 40
2019-09-03 11:00:00 28.3 7 Este 15 Este 0 -- -- 46
2019-09-03 10:00:00 25.4 6 Sudeste 11 Sudeste 0 -- -- 55
2019-09-03 09:00:00 18.4 0 Calma -- -- 0 -- -- 70
2019-09-03 08:00:00 15.7 0 Calma -- -- 0 -- -- 68
2019-09-03 07:00:00 16.5 0 Calma -- -- 0 -- -- 66
2019-09-03 06:00:00 17.5 0 Calma 4 Este 0 -- -- 65
2019-09-03 05:00:00 18.5 3 Norte 4 Norte 0 -- -- 63
2019-09-03 04:00:00 20.3 3 Noroeste 10 Sur 0 -- -- 59
2019-09-03 03:00:00 21.9 2 Nordeste 10 Sudoeste 0 -- -- 56
2019-09-03 02:00:00 22.7 5 Sur 11 Sur 0 -- -- 55
2019-09-03 01:00:00 22.9 3 Norte 5 Norte 0 -- -- 50
2019-09-03 00:00:00 25.8 4 Norte 12 Sudoeste 0 -- -- 45
2019-09-02 23:00:00 27.8 3 Oeste 14 Sudoeste 0 -- -- 41
2019-09-02 22:00:00 31.2 9 Oeste 22 Sudoeste 0 -- -- 36
2019-09-02 21:00:00 32.5 9 Sudoeste 25 Sudoeste 0 -- -- 30
2019-09-02 20:00:00 35.1 15 Sudoeste 25 Sudoeste 0 -- -- 28
2019-09-02 19:00:00 36.9 10 Sudoeste 21 Sudoeste 0 -- -- 26
2019-09-02 18:00:00 37.5 12 Sudoeste 27 Sudeste 0 -- -- 25
2019-09-02 17:00:00 37.7 9 Sur 26 Sur 0 -- -- 26
2019-09-02 16:00:00 36.9 9 Sudeste 23 Oeste 0 -- -- 27
2019-09-02 15:00:00 36.2 11 Sur 26 Sudeste 0 -- -- 30
2019-09-02 14:00:00 34.9 9 Sudeste 26 Sur 0 -- -- 33
2019-09-02 13:00:00 33.9 8 Este 15 Sudeste 0 -- -- 34
2019-09-02 12:00:00 32.2 6 Sur 14 Sur 0 -- -- 38
2019-09-02 11:00:00 29 3 Sur 7 Este 0 -- -- 44
2019-09-02 10:00:00 24.2 0 Calma 4 Oeste 0 -- -- 55
2019-09-02 09:00:00 18.8 0 Calma -- -- 0 -- -- 67
2019-09-02 08:00:00 16.9 0 Calma -- -- 0 -- -- 65
2019-09-02 07:00:00 17.8 0 Calma 8 Norte 0 -- -- 66
2019-09-02 06:00:00 18.5 4 Sur 6 Sur 0 -- -- 63
2019-09-02 05:00:00 19 0 Calma -- -- 0 -- -- 59
2019-09-02 04:00:00 19.8 0 Calma 4 Norte 0 -- -- 56
2019-09-02 03:00:00 20.7 3 Oeste 8 Noroeste 0 -- -- 56
2019-09-02 02:00:00 21.8 0 Calma 7 Noroeste 0 -- -- 54
2019-09-02 01:00:00 23 3 Sur 8 Norte 0 -- -- 49
2019-09-02 00:00:00 25.1 5 Norte 7 Noroeste 0 -- -- 46
2019-09-01 23:00:00 28.4 5 Oeste 17 Sudoeste 0 -- -- 41
2019-09-01 22:00:00 30.3 8 Oeste 27 Oeste 0 -- -- 38
2019-09-01 21:00:00 32.3 12 Sudoeste 24 Sudoeste 0 -- -- 37
2019-09-01 20:00:00 34.8 14 Sudoeste 24 Sudoeste 0 -- -- 27
2019-09-01 19:00:00 36.4 12 Sudoeste 23 Sudoeste 0 -- -- 26
2019-09-01 18:00:00 37 13 Sudoeste 24 Sudoeste 0 -- -- 25
2019-09-01 17:00:00 37.1 10 Sur 25 Sudoeste 0 -- -- 27
2019-09-01 16:00:00 36.7 9 Sudoeste 20 Sudoeste 0 -- -- 28
2019-09-01 15:00:00 35.7 10 Sudoeste 24 Sur 0 -- -- 30
2019-09-01 14:00:00 34.6 8 Sur 17 Sur 0 -- -- 31
2019-09-01 13:00:00 32.9 8 Sur 18 Sur 0 -- -- 35
2019-09-01 12:00:00 30.9 6 Sudoeste 12 Sur 0 -- -- 40
2019-09-01 11:00:00 28.6 6 Oeste 11 Oeste 0 -- -- 45
2019-09-01 10:00:00 25.1 0 Calma 3 Este 0 -- -- 54
2019-09-01 09:00:00 19.4 0 Calma 3 Norte 0 -- -- 69
2019-09-01 08:00:00 17.2 0 Calma 5 Norte 0 -- -- 67
2019-09-01 07:00:00 17.6 2 Noroeste 4 Norte 0 -- -- 67
2019-09-01 06:00:00 18.7 2 Sudeste 6 Noroeste 0 -- -- 64
2019-09-01 05:00:00 19.6 3 Norte 7 Noroeste 0 -- -- 64
2019-09-01 04:00:00 20.8 0 Calma 6 Norte 0 -- -- 59
2019-09-01 03:00:00 21.9 3 Oeste 5 Noroeste 0 -- -- 55
2019-09-01 02:00:00 23.6 3 Norte 7 Oeste 0 -- -- 54
2019-09-01 01:00:00 26.6 3 Oeste 12 Oeste 0 -- -- 48
2019-09-01 00:00:00 28.5 6 Oeste 16 Oeste 0 -- -- 43
2019-08-31 23:00:00 29.2 10 Oeste 14 Oeste 0 -- -- 40
2019-08-31 22:00:00 30.5 8 Oeste 13 Oeste 0 -- -- 34
2019-08-31 21:00:00 33 9 Sudoeste 18 Sudoeste 0 -- -- 29
2019-08-31 20:00:00 35.2 9 Sudoeste 18 Sudoeste 0 -- -- 27
2019-08-31 19:00:00 36.7 9 Sudoeste 20 Sudoeste 0 -- -- 25
2019-08-31 18:00:00 36.9 8 Sur 27 Oeste 0 -- -- 25
2019-08-31 17:00:00 36.6 12 Sudoeste 22 Sudoeste 0 -- -- 25
2019-08-31 16:00:00 36.6 8 Sur 21 Sudoeste 0 -- -- 26
2019-08-31 15:00:00 36.1 6 Sudoeste 20 Sudoeste 0 -- -- 28
2019-08-31 14:00:00 34.5 12 Sudeste 20 Este 0 -- -- 30
2019-08-31 13:00:00 32.6 10 Sudeste 21 Sudeste 0 -- -- 34
2019-08-31 12:00:00 30.6 10 Este 18 Sudeste 0 -- -- 37
2019-08-31 11:00:00 28.4 12 Este 21 Este 0 -- -- 39
2019-08-31 10:00:00 25.8 9 Este 16 Este 0 -- -- 46
2019-08-31 09:00:00 19.2 0 Calma 3 Norte 0 -- -- 63
2019-08-31 08:00:00 16.4 0 Calma 3 Noroeste 0 -- -- 63
2019-08-31 07:00:00 17.2 0 Calma 3 Noroeste 0 -- -- 59
2019-08-31 06:00:00 18.2 0 Calma 4 Norte 0 -- -- 56
2019-08-31 05:00:00 19.5 0 Calma 5 Noroeste 0 -- -- 54
2019-08-31 04:00:00 21.5 0 Calma 5 Oeste 0 -- -- 50
2019-08-31 03:00:00 23.4 0 Calma 12 Este 0 -- -- 47
2019-08-31 02:00:00 26.3 10 Este 22 Este 0 -- -- 43
2019-08-31 01:00:00 26.2 10 Este 30 Este 0 -- -- 43
2019-08-31 00:00:00 23.2 3 Nordeste 6 Nordeste 0 -- -- 40
2019-08-30 23:00:00 25.6 0 Calma 7 Norte 0 -- -- 36
2019-08-30 22:00:00 29.3 2 Sudoeste 13 Oeste 0 -- -- 31
2019-08-30 21:00:00 32.9 9 Oeste 20 Sudoeste 0 -- -- 28
2019-08-30 20:00:00 35.3 13 Sudoeste 26 Sudoeste 0 -- -- 25
2019-08-30 19:00:00 37.5 8 Sudoeste 17 Oeste 0 -- -- 23
2019-08-30 18:00:00 37.7 8 Sur 23 Sur 0 -- -- 23
2019-08-30 17:00:00 37.4 5 Sudoeste 23 Sudeste 0 -- -- 24
2019-08-30 16:00:00 36.9 11 Sur 23 Sur 0 -- -- 25
2019-08-30 15:00:00 35.5 12 Este 35 Sur 0 -- -- 27
2019-08-30 14:00:00 34.2 9 Este 24 Sudeste 0 -- -- 29
2019-08-30 13:00:00 32.8 9 Este 20 Sudeste 0 -- -- 31
2019-08-30 12:00:00 31.1 9 Sudeste 18 Sudeste 0 -- -- 34
2019-08-30 11:00:00 28.6 6 Sudeste 12 Sudeste 0 -- -- 39
2019-08-30 10:00:00 24.2 3 Sur 5 Nordeste 0 -- -- 51
2019-08-30 09:00:00 18.5 0 Calma 3 Noroeste 0 -- -- 65
2019-08-30 08:00:00 15.5 3 Oeste 6 Noroeste 0 -- -- 68
2019-08-30 07:00:00 15.9 0 Calma 3 Noroeste 0 -- -- 65
2019-08-30 06:00:00 16.7 0 Calma 4 Norte 0 -- -- 63
2019-08-30 05:00:00 17.3 3 Oeste 5 Oeste 0 -- -- 61
2019-08-30 04:00:00 18.2 0 Calma 4 Sudeste 0 -- -- 59
2019-08-30 03:00:00 19.6 0 Calma 5 Norte 0 -- -- 55
2019-08-30 02:00:00 21.9 0 Calma 8 Norte 0 -- -- 50
2019-08-30 01:00:00 25.4 4 Noroeste 14 Sudoeste 0 -- -- 46
2019-08-30 00:00:00 28.3 8 Sudoeste 22 Sudoeste 0 -- -- 40
2019-08-29 23:00:00 29.1 11 Sudoeste 18 Sudoeste 0 -- -- 40
2019-08-29 22:00:00 28.6 2 Sur 15 Sur 0 -- -- 34
2019-08-29 21:00:00 32.3 13 Sudeste 28 Sudeste 0 -- -- 30
2019-08-29 20:00:00 34.9 15 Sudeste 25 Sur 0 -- -- 27
2019-08-29 19:00:00 36.6 9 Sur 26 Sudeste 0 -- -- 23
2019-08-29 18:00:00 36.5 12 Sudeste 29 Sudeste 0 -- -- 23
2019-08-29 17:00:00 36.4 13 Sur 27 Sudeste 0 -- -- 24
2019-08-29 16:00:00 35.4 13 Sudeste 47 Sur 0 -- -- 26
2019-08-29 15:00:00 34.6 15 Sudeste 27 Sudeste 0 -- -- 27
2019-08-29 14:00:00 32.7 12 Sudeste 21 Sudeste 0 -- -- 32
2019-08-29 13:00:00 32 11 Este 23 Sudeste 0 -- -- 33
2019-08-29 12:00:00 31 12 Este 22 Este 0 -- -- 32
2019-08-29 11:00:00 28.7 8 Sudeste 13 Sudeste 0 -- -- 39
2019-08-29 10:00:00 22.2 0 Calma 4 Oeste 0 -- -- 66
2019-08-29 09:00:00 21.5 0 Calma 13 Este 0 -- -- 62
2019-08-29 08:00:00 21.7 6 Nordeste 15 Oeste 0 -- -- 60
2019-08-29 07:00:00 20.4 4 Sur 7 Sur 0 -- -- 62
2019-08-29 06:00:00 19.9 3 Noroeste 5 Noroeste 0 -- -- 60
2019-08-29 05:00:00 20.4 0 Calma 5 Noroeste 0 -- -- 59
2019-08-29 04:00:00 20.4 3 Oeste 6 Nordeste 0 -- -- 58
2019-08-29 03:00:00 20.2 3 Nordeste 6 Nordeste 0 -- -- 54
2019-08-29 02:00:00 21.3 0 Calma 9 Norte 0 -- -- 51
2019-08-29 01:00:00 22.7 4 Noroeste 8 Este 0 -- -- 48
2019-08-29 00:00:00 23.6 3 Noroeste 13 Sudeste 0 -- -- 44
2019-08-28 23:00:00 25.1 0 Calma 4 Noroeste 0 -- -- 41
2019-08-28 22:00:00 27.4 3 Oeste 6 Noroeste 0 -- -- 37
2019-08-28 21:00:00 31.2 0 Calma 10 Sudeste 0 -- -- 35
2019-08-28 20:00:00 34.4 6 Sudoeste 19 Sur 0 -- -- 30
2019-08-28 19:00:00 35.2 10 Sur 20 Sur 0 -- -- 29
2019-08-28 18:00:00 35.6 9 Sur 23 Sur 0 -- -- 29
2019-08-28 17:00:00 35.3 10 Sudoeste 24 Sur 0 -- -- 29
2019-08-28 16:00:00 34.7 6 Noroeste 24 Este 0 -- -- 30
2019-08-28 15:00:00 34.2 6 Sudoeste 23 Sudeste 0 -- -- 32
2019-08-28 14:00:00 32.8 10 Sudeste 20 Este 0 -- -- 35
2019-08-28 13:00:00 31 9 Este 20 Sudeste 0 -- -- 41
2019-08-28 12:00:00 28.8 8 Este 17 Sudeste 0 -- -- 48
2019-08-28 11:00:00 26.8 10 Este 19 Este 0 -- -- 48
2019-08-28 10:00:00 23.2 2 Este 4 Nordeste 0 -- -- 63
2019-08-28 09:00:00 18.3 0 Calma 4 Sudoeste 0 -- -- 80
2019-08-28 08:00:00 15.3 2 Norte 6 Este 0 -- -- 83
2019-08-28 07:00:00 16.3 2 Nordeste 6 Sudeste 0 -- -- 79
2019-08-28 06:00:00 16.5 3 Este 6 Nordeste 0 -- -- 81
2019-08-28 05:00:00 17.1 0 Calma 8 Noroeste 0 -- -- 76
2019-08-28 04:00:00 17.5 4 Noroeste 7 Noroeste 0 -- -- 72
2019-08-28 03:00:00 18.4 2 Norte 5 Sudeste 0 -- -- 69
2019-08-28 02:00:00 20 2 Noroeste 5 Nordeste 0 -- -- 65
2019-08-28 01:00:00 21.8 5 Norte 9 Este 0 -- -- 61
2019-08-28 00:00:00 24.3 5 Sudeste 14 Oeste 0 -- -- 58
2019-08-27 23:00:00 25.7 10 Oeste 24 Oeste 0 -- -- 54
2019-08-27 22:00:00 27 14 Oeste 22 Oeste 0 -- -- 47
2019-08-27 21:00:00 28.9 4 Sudoeste 16 Sudoeste 0 -- -- 38
2019-08-27 20:00:00 30.9 7 Sur 17 Sur 0 -- -- 35
2019-08-27 19:00:00 31.7 8 Sudoeste 23 Sur 0 -- -- 34
2019-08-27 18:00:00 31.8 6 Sudoeste 23 Sudoeste 0 -- -- 36
2019-08-27 17:00:00 31 11 Sudoeste 26 Sur 0 -- -- 38
2019-08-27 16:00:00 30.9 9 Sudeste 27 Sur 0 -- -- 41
2019-08-27 15:00:00 30 12 Sur 23 Sur 0 -- -- 43
2019-08-27 14:00:00 28.6 7 Sur 20 Sudoeste 0 -- -- 49
2019-08-27 13:00:00 27.4 8 Sur 22 Sur 0 -- -- 54
2019-08-27 12:00:00 25.7 3 Noroeste 16 Sudoeste 0 -- -- 59
2019-08-27 11:00:00 23.2 8 Oeste 20 Oeste 0 -- -- 67
2019-08-27 10:00:00 20.8 12 Oeste 19 Sudoeste 0 -- -- 75
2019-08-27 09:00:00 18.5 5 Oeste 9 Oeste 0 -- -- 84
2019-08-27 08:00:00 16 0 Calma 5 Noroeste 0 -- -- 80
2019-08-27 07:00:00 16.7 4 Noroeste 7 Sudeste 0 -- -- 73
2019-08-27 06:00:00 18.4 0 Calma 12 Oeste 0 -- -- 65
2019-08-27 05:00:00 19.6 6 Oeste 10 Sudoeste 0 -- -- 63
2019-08-27 04:00:00 18.3 2 Nordeste 6 Oeste 0 -- -- 75
2019-08-27 03:00:00 19 4 Noroeste 8 Oeste 0 -- -- 72
2019-08-27 02:00:00 21.1 2 Sur 13 Oeste 0 -- -- 69
2019-08-27 01:00:00 22.5 9 Oeste 19 Oeste 0 -- -- 67
2019-08-27 00:00:00 23.3 13 Sudoeste 21 Sudoeste 0 -- -- 67
2019-08-26 23:00:00 25 6 Sudoeste 16 Sudoeste 0 -- -- 62
2019-08-26 22:00:00 26.5 8 Oeste 22 Oeste 0 -- -- 56
2019-08-26 21:00:00 27.5 10 Este 18 Oeste 0 -- -- 39
2019-08-26 20:00:00 28.9 13 Noroeste 31 Sudoeste 0 -- -- 39
2019-08-26 19:00:00 30.7 19 Oeste 34 Oeste 0 -- -- 41
2019-08-26 18:00:00 32 16 Sudoeste 28 Sudoeste 0 -- -- 39
2019-08-26 17:00:00 31.8 15 Sudoeste 31 Sudoeste 0 -- -- 37
2019-08-26 16:00:00 31.8 10 Sur 28 Sur 0 -- -- 42
2019-08-26 15:00:00 31.2 17 Sudeste 27 Sudeste 0 -- -- 43
2019-08-26 14:00:00 30.2 11 Sur 23 Sur 0 -- -- 46
2019-08-26 13:00:00 29.1 14 Sur 26 Sur 0 -- -- 50
2019-08-26 12:00:00 27.6 7 Sur 19 Sudeste 0 -- -- 54
2019-08-26 11:00:00 25.6 9 Sudeste 19 Sudeste 0 -- -- 59
2019-08-26 10:00:00 21.4 0 Calma 3 Sudoeste 0 -- -- 69
2019-08-26 09:00:00 18.1 2 Este 4 Noroeste 0 -- -- 74
2019-08-26 08:00:00 16.8 0 Calma 8 Noroeste 0 -- -- 73
2019-08-26 07:00:00 17.2 0 Calma 5 Noroeste 0 -- -- 73
2019-08-26 06:00:00 17.7 2 Norte 5 Este 0 -- -- 72
2019-08-26 05:00:00 18.7 3 Nordeste 7 Noroeste 0 -- -- 70
2019-08-26 04:00:00 20.6 3 Noroeste 6 Noroeste 0 -- -- 63
2019-08-26 03:00:00 22.8 3 Norte 15 Sur 0 -- -- 60
2019-08-26 02:00:00 24.1 8 Sur 18 Sur 0 -- -- 57
2019-08-26 01:00:00 24.7 10 Sur 17 Sur 0 -- -- 56
2019-08-26 00:00:00 26.2 9 Sur 24 Sudoeste 0 -- -- 50
2019-08-25 23:00:00 27.6 13 Sudoeste 36 Sudoeste 0 -- -- 47
2019-08-25 22:00:00 29.2 10 Sudoeste 22 Sudoeste 0 -- -- 42
2019-08-25 21:00:00 31.1 6 Sur 18 Sudoeste 0 -- -- 33
2019-08-25 20:00:00 32.5 12 Sudoeste 26 Sudoeste 0 -- -- 31
2019-08-25 19:00:00 34.4 9 Sudeste 24 Sudeste 0 -- -- 31
2019-08-25 18:00:00 34.8 12 Sudeste 32 Sudeste 0 -- -- 28
2019-08-25 17:00:00 34.8 18 Sudeste 33 Sudeste 0 -- -- 23
2019-08-25 16:00:00 34.3 13 Sur 28 Sudeste 0 -- -- 34
2019-08-25 15:00:00 33.1 12 Sudeste 28 Sudeste 0 -- -- 40
2019-08-25 14:00:00 31.7 14 Sudeste 26 Sudeste 0 -- -- 42
2019-08-25 13:00:00 30 12 Sudeste 24 Sudeste 0 -- -- 48
2019-08-25 12:00:00 29.1 10 Sudeste 23 Este 0 -- -- 50
2019-08-25 11:00:00 27.5 8 Sudeste 18 Sudeste 0 -- -- 53
2019-08-25 10:00:00 25.2 8 Este 13 Este 0 -- -- 60
2019-08-25 09:00:00 19.2 0 Calma 4 Sur 0 -- -- 70
2019-08-25 08:00:00 16.2 0 Calma 5 Noroeste 0 -- -- 71
2019-08-25 07:00:00 17 0 Calma 4 Norte 0 -- -- 69
2019-08-25 06:00:00 18 0 Calma 6 Noroeste 0 -- -- 69
2019-08-25 05:00:00 19.5 0 Calma 3 Sudeste 0 -- -- 64
2019-08-25 04:00:00 22.1 3 Noroeste 13 Sudoeste 0 -- -- 58
2019-08-25 03:00:00 23.8 4 Sudoeste 16 Sudoeste 0 -- -- 56
2019-08-25 02:00:00 25 8 Sudoeste 23 Sudoeste 0 -- -- 52
2019-08-25 01:00:00 26.1 8 Sudoeste 19 Sudoeste 0 -- -- 46
2019-08-25 00:00:00 27.5 12 Sudoeste 20 Sur 0 -- -- 41
2019-08-24 23:00:00 28 3 Sudeste 21 Sur 0 -- -- 31
2019-08-24 22:00:00 30.3 10 Sur 18 Sur 0 -- -- 26
2019-08-24 21:00:00 32.9 6 Sur 17 Sur 0 -- -- 27
2019-08-24 20:00:00 35.4 13 Sur 22 Sur 0 -- -- 26
2019-08-24 19:00:00 36.4 9 Sudoeste 21 Sur 0 -- -- 25
2019-08-24 18:00:00 36.7 8 Sur 20 Sur 0 -- -- 25
2019-08-24 17:00:00 36.2 10 Sudeste 26 Sudeste 0 -- -- 27
2019-08-24 16:00:00 35.3 8 Este 22 Este 0 -- -- 29
2019-08-24 15:00:00 34.6 11 Este 25 Sudeste 0 -- -- 30
2019-08-24 14:00:00 33.1 10 Sudeste 20 Sudeste 0 -- -- 35
2019-08-24 13:00:00 31.4 11 Sudeste 20 Sudeste 0 -- -- 38
2019-08-24 12:00:00 29.9 10 Este 19 Este 0 -- -- 40
2019-08-24 11:00:00 28 9 Este 15 Nordeste 0 -- -- 41
2019-08-24 10:00:00 25.1 4 Este 8 Este 0 -- -- 44
2019-08-24 09:00:00 18.2 0 Calma 2 Norte 0 -- -- 58
2019-08-24 08:00:00 14.5 0 Calma 3 Oeste 0 -- -- 60
2019-08-24 07:00:00 15.2 0 Calma 3 Noroeste 0 -- -- 57
2019-08-24 06:00:00 16.4 0 Calma 3 Norte 0 -- -- 56
2019-08-24 05:00:00 17.9 0 Calma 3 Norte 0 -- -- 50
2019-08-24 04:00:00 19.7 2 Sudoeste 7 Norte 0 -- -- 48
2019-08-24 03:00:00 20.8 5 Este 9 Este 0 -- -- 46
2019-08-24 02:00:00 22.6 5 Este 9 Este 0 -- -- 41
2019-08-24 01:00:00 24 8 Este 12 Este 0 -- -- 40
2019-08-24 00:00:00 25.2 7 Sudeste 13 Este 0 -- -- 39
2019-08-23 23:00:00 26.9 9 Este 14 Nordeste 0 -- -- 34
2019-08-23 22:00:00 28.9 7 Este 20 Sudeste 0 -- -- 31
2019-08-23 21:00:00 31.9 14 Sur 22 Sur 0 -- -- 26
2019-08-23 20:00:00 34.3 11 Sur 24 Sur 0 -- -- 25
2019-08-23 19:00:00 35.8 13 Sur 26 Sur 0 -- -- 25
2019-08-23 18:00:00 35.9 9 Sudeste 25 Sur 0 -- -- 26
2019-08-23 17:00:00 35.7 8 Sudeste 26 Sudeste 0 -- -- 29
2019-08-23 16:00:00 35.2 12 Sudeste 27 Sudeste 0 -- -- 31
2019-08-23 15:00:00 34.2 10 Sur 25 Sudeste 0 -- -- 34
2019-08-23 14:00:00 32.6 11 Sudeste 24 Sudeste 0 -- -- 39
2019-08-23 13:00:00 31.2 14 Sudeste 26 Sudeste 0 -- -- 43
2019-08-23 12:00:00 29.4 10 Sudeste 21 Este 0 -- -- 50
2019-08-23 11:00:00 27.8 12 Sudeste 21 Sudeste 0 -- -- 53
2019-08-23 10:00:00 25.5 6 Este 10 Este 0 -- -- 62
2019-08-23 09:00:00 20.2 0 Calma 2 Norte 0 -- -- 78
2019-08-23 08:00:00 16.7 0 Calma 3 Norte 0 -- -- 81
2019-08-23 07:00:00 17.4 0 Calma 5 Norte 0 -- -- 78
2019-08-23 06:00:00 18.3 0 Calma 3 Norte 0 -- -- 76
2019-08-23 05:00:00 19.7 0 Calma 4 Norte 0 -- -- 73
2019-08-23 04:00:00 21.3 2 Norte 4 Nordeste 0 -- -- 69
2019-08-23 03:00:00 23.6 0 Calma 12 Sudoeste 0 -- -- 65
2019-08-23 02:00:00 24.4 0 Calma 14 Sur 0 -- -- 63
2019-08-23 01:00:00 25.3 5 Sudeste 17 Sur 0 -- -- 60
2019-08-23 00:00:00 25.3 2 Este 7 Nordeste 0 -- -- 58